sensor_id;sensor_type;location;lat;lon;timestamp;P1;durP1;ratioP1;P2;durP2;ratioP2
73779;SDS011;62093;37.614;15.072;2023-02-12T00:02:28;12.67;;;9.37;;
73779;SDS011;62093;37.614;15.072;2023-02-12T00:04:55;13.27;;;9.85;;
73779;SDS011;62093;37.614;15.072;2023-02-12T00:07:21;13.38;;;9.90;;
73779;SDS011;62093;37.614;15.072;2023-02-12T00:09:47;13.15;;;9.32;;
73779;SDS011;62093;37.614;15.072;2023-02-12T00:12:14;12.23;;;9.35;;
73779;SDS011;62093;37.614;15.072;2023-02-12T00:14:40;12.53;;;9.57;;
73779;SDS011;62093;37.614;15.072;2023-02-12T00:17:07;11.85;;;8.95;;
73779;SDS011;62093;37.614;15.072;2023-02-12T00:19:33;12.25;;;8.98;;
73779;SDS011;62093;37.614;15.072;2023-02-12T00:21:59;13.93;;;9.57;;
73779;SDS011;62093;37.614;15.072;2023-02-12T00:24:26;12.20;;;9.10;;
73779;SDS011;62093;37.614;15.072;2023-02-12T00:26:52;11.87;;;9.40;;
73779;SDS011;62093;37.614;15.072;2023-02-12T00:29:18;12.25;;;9.05;;
73779;SDS011;62093;37.614;15.072;2023-02-12T00:31:45;13.40;;;9.38;;
73779;SDS011;62093;37.614;15.072;2023-02-12T00:34:11;12.07;;;9.40;;
73779;SDS011;62093;37.614;15.072;2023-02-12T00:36:42;12.77;;;9.63;;
73779;SDS011;62093;37.614;15.072;2023-02-12T00:39:08;12.50;;;9.33;;
73779;SDS011;62093;37.614;15.072;2023-02-12T00:41:38;12.98;;;9.20;;
73779;SDS011;62093;37.614;15.072;2023-02-12T00:44:04;12.48;;;8.85;;
73779;SDS011;62093;37.614;15.072;2023-02-12T00:46:36;11.85;;;8.75;;
73779;SDS011;62093;37.614;15.072;2023-02-12T00:49:02;12.00;;;9.03;;
73779;SDS011;62093;37.614;15.072;2023-02-12T00:51:28;13.38;;;9.10;;
73779;SDS011;62093;37.614;15.072;2023-02-12T00:53:58;12.45;;;8.95;;
73779;SDS011;62093;37.614;15.072;2023-02-12T00:56:27;11.98;;;8.80;;
73779;SDS011;62093;37.614;15.072;2023-02-12T00:58:53;12.30;;;9.02;;
73779;SDS011;62093;37.614;15.072;2023-02-12T01:01:19;13.20;;;9.30;;
73779;SDS011;62093;37.614;15.072;2023-02-12T01:03:58;11.27;;;8.73;;
73779;SDS011;62093;37.614;15.072;2023-02-12T01:06:28;10.98;;;8.63;;
73779;SDS011;62093;37.614;15.072;2023-02-12T01:08:54;13.25;;;8.48;;
73779;SDS011;62093;37.614;15.072;2023-02-12T01:11:20;11.87;;;9.23;;
73779;SDS011;62093;37.614;15.072;2023-02-12T01:13:47;11.02;;;8.15;;
73779;SDS011;62093;37.614;15.072;2023-02-12T01:16:18;11.48;;;8.27;;
73779;SDS011;62093;37.614;15.072;2023-02-12T01:18:48;11.77;;;8.82;;
73779;SDS011;62093;37.614;15.072;2023-02-12T01:21:16;10.53;;;8.47;;
73779;SDS011;62093;37.614;15.072;2023-02-12T01:23:49;11.38;;;8.43;;
73779;SDS011;62093;37.614;15.072;2023-02-12T01:26:15;11.57;;;8.90;;
73779;SDS011;62093;37.614;15.072;2023-02-12T01:28:43;12.80;;;8.70;;
73779;SDS011;62093;37.614;15.072;2023-02-12T01:31:11;11.27;;;8.18;;
73779;SDS011;62093;37.614;15.072;2023-02-12T01:33:39;12.70;;;8.87;;
73779;SDS011;62093;37.614;15.072;2023-02-12T01:36:06;11.75;;;8.48;;
73779;SDS011;62093;37.614;15.072;2023-02-12T01:38:33;11.65;;;8.50;;
73779;SDS011;62093;37.614;15.072;2023-02-12T01:41:03;11.05;;;8.13;;
73779;SDS011;62093;37.614;15.072;2023-02-12T01:43:34;10.77;;;8.13;;
73779;SDS011;62093;37.614;15.072;2023-02-12T01:46:00;11.23;;;8.10;;
73779;SDS011;62093;37.614;15.072;2023-02-12T01:48:29;10.43;;;8.02;;
73779;SDS011;62093;37.614;15.072;2023-02-12T01:51:00;11.23;;;8.30;;
73779;SDS011;62093;37.614;15.072;2023-02-12T01:53:28;10.88;;;8.23;;
73779;SDS011;62093;37.614;15.072;2023-02-12T01:55:59;11.93;;;8.23;;
73779;SDS011;62093;37.614;15.072;2023-02-12T01:58:34;12.33;;;8.73;;
73779;SDS011;62093;37.614;15.072;2023-02-12T02:01:10;10.77;;;7.97;;
73779;SDS011;62093;37.614;15.072;2023-02-12T02:03:39;11.13;;;8.75;;
73779;SDS011;62093;37.614;15.072;2023-02-12T02:06:16;10.27;;;7.88;;
73779;SDS011;62093;37.614;15.072;2023-02-12T02:09:04;10.80;;;8.07;;
73779;SDS011;62093;37.614;15.072;2023-02-12T02:11:31;11.10;;;7.97;;
73779;SDS011;62093;37.614;15.072;2023-02-12T02:14:15;10.15;;;8.20;;
73779;SDS011;62093;37.614;15.072;2023-02-12T02:17:05;10.98;;;8.10;;
73779;SDS011;62093;37.614;15.072;2023-02-12T02:33:54;10.40;;;7.53;;
73779;SDS011;62093;37.614;15.072;2023-02-12T02:42:08;10.32;;;7.30;;
73779;SDS011;62093;37.614;15.072;2023-02-12T02:44:47;11.10;;;7.72;;
73779;SDS011;62093;37.614;15.072;2023-02-12T02:50:34;10.73;;;7.43;;
73779;SDS011;62093;37.614;15.072;2023-02-12T02:53:06;10.50;;;7.50;;
73779;SDS011;62093;37.614;15.072;2023-02-12T02:55:35;10.75;;;7.68;;
73779;SDS011;62093;37.614;15.072;2023-02-12T02:58:10;10.65;;;7.93;;
73779;SDS011;62093;37.614;15.072;2023-02-12T03:00:40;10.82;;;7.53;;
73779;SDS011;62093;37.614;15.072;2023-02-12T03:03:21;10.88;;;7.32;;
73779;SDS011;62093;37.614;15.072;2023-02-12T03:05:51;10.10;;;7.60;;
73779;SDS011;62093;37.614;15.072;2023-02-12T03:08:22;10.70;;;7.68;;
73779;SDS011;62093;37.614;15.072;2023-02-12T03:11:11;10.20;;;7.40;;
73779;SDS011;62093;37.614;15.072;2023-02-12T03:13:45;10.77;;;7.20;;
73779;SDS011;62093;37.614;15.072;2023-02-12T03:16:19;9.32;;;7.22;;
73779;SDS011;62093;37.614;15.072;2023-02-12T03:19:05;9.30;;;7.10;;
73779;SDS011;62093;37.614;15.072;2023-02-12T03:24:30;9.63;;;7.22;;
73779;SDS011;62093;37.614;15.072;2023-02-12T03:29:41;9.70;;;7.25;;
73779;SDS011;62093;37.614;15.072;2023-02-12T03:32:15;10.33;;;7.17;;
73779;SDS011;62093;37.614;15.072;2023-02-12T03:35:08;9.68;;;6.93;;
73779;SDS011;62093;37.614;15.072;2023-02-12T03:37:55;9.38;;;6.80;;
73779;SDS011;62093;37.614;15.072;2023-02-12T03:48:26;9.43;;;6.72;;
73779;SDS011;62093;37.614;15.072;2023-02-12T03:53:29;9.35;;;6.45;;
73779;SDS011;62093;37.614;15.072;2023-02-12T03:56:18;10.50;;;7.30;;
73779;SDS011;62093;37.614;15.072;2023-02-12T03:58:46;9.70;;;6.90;;
73779;SDS011;62093;37.614;15.072;2023-02-12T04:01:12;9.25;;;6.68;;
73779;SDS011;62093;37.614;15.072;2023-02-12T04:03:39;10.65;;;6.63;;
73779;SDS011;62093;37.614;15.072;2023-02-12T04:06:22;9.07;;;6.35;;
73779;SDS011;62093;37.614;15.072;2023-02-12T04:08:50;9.73;;;6.93;;
73779;SDS011;62093;37.614;15.072;2023-02-12T04:14:26;9.98;;;6.47;;
73779;SDS011;62093;37.614;15.072;2023-02-12T04:19:49;8.77;;;6.10;;
73779;SDS011;62093;37.614;15.072;2023-02-12T04:24:59;8.93;;;6.00;;
73779;SDS011;62093;37.614;15.072;2023-02-12T04:28:04;9.98;;;6.55;;
73779;SDS011;62093;37.614;15.072;2023-02-12T04:33:24;8.88;;;6.38;;
73779;SDS011;62093;37.614;15.072;2023-02-12T04:36:03;9.83;;;6.30;;
73779;SDS011;62093;37.614;15.072;2023-02-12T04:41:12;9.73;;;6.75;;
73779;SDS011;62093;37.614;15.072;2023-02-12T04:43:38;8.95;;;6.55;;
73779;SDS011;62093;37.614;15.072;2023-02-12T04:46:05;8.88;;;6.68;;
73779;SDS011;62093;37.614;15.072;2023-02-12T04:48:32;9.27;;;6.50;;
73779;SDS011;62093;37.614;15.072;2023-02-12T04:51:01;9.00;;;7.05;;
73779;SDS011;62093;37.614;15.072;2023-02-12T04:53:27;9.75;;;6.45;;
73779;SDS011;62093;37.614;15.072;2023-02-12T04:55:53;8.60;;;6.40;;
73779;SDS011;62093;37.614;15.072;2023-02-12T04:58:19;9.50;;;6.50;;
73779;SDS011;62093;37.614;15.072;2023-02-12T05:00:45;9.05;;;6.07;;
73779;SDS011;62093;37.614;15.072;2023-02-12T05:03:11;8.38;;;6.13;;
73779;SDS011;62093;37.614;15.072;2023-02-12T05:05:37;8.30;;;5.90;;
73779;SDS011;62093;37.614;15.072;2023-02-12T05:08:02;9.52;;;6.63;;
73779;SDS011;62093;37.614;15.072;2023-02-12T05:10:28;8.73;;;6.37;;
73779;SDS011;62093;37.614;15.072;2023-02-12T05:12:54;9.98;;;6.15;;
73779;SDS011;62093;37.614;15.072;2023-02-12T05:15:20;9.15;;;6.18;;
73779;SDS011;62093;37.614;15.072;2023-02-12T05:17:47;8.80;;;6.00;;
73779;SDS011;62093;37.614;15.072;2023-02-12T05:20:13;8.50;;;6.13;;
73779;SDS011;62093;37.614;15.072;2023-02-12T05:22:39;8.90;;;6.20;;
73779;SDS011;62093;37.614;15.072;2023-02-12T05:25:05;8.65;;;6.53;;
73779;SDS011;62093;37.614;15.072;2023-02-12T05:27:32;8.43;;;6.30;;
73779;SDS011;62093;37.614;15.072;2023-02-12T05:29:58;9.33;;;6.27;;
73779;SDS011;62093;37.614;15.072;2023-02-12T05:32:42;9.18;;;6.03;;
73779;SDS011;62093;37.614;15.072;2023-02-12T05:35:08;8.95;;;6.18;;
73779;SDS011;62093;37.614;15.072;2023-02-12T05:37:34;9.30;;;6.17;;
73779;SDS011;62093;37.614;15.072;2023-02-12T05:40:01;9.20;;;6.65;;
73779;SDS011;62093;37.614;15.072;2023-02-12T05:42:28;8.68;;;6.18;;
73779;SDS011;62093;37.614;15.072;2023-02-12T05:44:54;8.77;;;5.93;;
73779;SDS011;62093;37.614;15.072;2023-02-12T05:47:20;8.90;;;6.03;;
73779;SDS011;62093;37.614;15.072;2023-02-12T05:49:46;10.13;;;7.30;;
73779;SDS011;62093;37.614;15.072;2023-02-12T05:52:11;8.90;;;6.17;;
73779;SDS011;62093;37.614;15.072;2023-02-12T05:54:37;8.95;;;6.20;;
73779;SDS011;62093;37.614;15.072;2023-02-12T05:57:03;9.00;;;5.97;;
73779;SDS011;62093;37.614;15.072;2023-02-12T05:59:31;8.60;;;6.07;;
73779;SDS011;62093;37.614;15.072;2023-02-12T06:01:58;8.35;;;6.07;;
73779;SDS011;62093;37.614;15.072;2023-02-12T06:04:26;8.77;;;6.07;;
73779;SDS011;62093;37.614;15.072;2023-02-12T06:06:54;9.20;;;6.43;;
73779;SDS011;62093;37.614;15.072;2023-02-12T06:09:20;8.43;;;5.77;;
73779;SDS011;62093;37.614;15.072;2023-02-12T06:11:47;9.40;;;6.78;;
73779;SDS011;62093;37.614;15.072;2023-02-12T06:14:15;9.38;;;5.82;;
73779;SDS011;62093;37.614;15.072;2023-02-12T06:16:46;9.30;;;6.40;;
73779;SDS011;62093;37.614;15.072;2023-02-12T06:19:16;9.57;;;6.50;;
73779;SDS011;62093;37.614;15.072;2023-02-12T06:21:42;8.60;;;5.60;;
73779;SDS011;62093;37.614;15.072;2023-02-12T06:24:12;8.65;;;6.30;;
73779;SDS011;62093;37.614;15.072;2023-02-12T06:26:39;8.75;;;6.30;;
73779;SDS011;62093;37.614;15.072;2023-02-12T06:29:05;8.93;;;6.10;;
73779;SDS011;62093;37.614;15.072;2023-02-12T06:31:31;9.17;;;5.90;;
73779;SDS011;62093;37.614;15.072;2023-02-12T06:34:03;8.13;;;5.60;;
73779;SDS011;62093;37.614;15.072;2023-02-12T06:36:31;8.48;;;6.15;;
73779;SDS011;62093;37.614;15.072;2023-02-12T06:38:59;8.63;;;5.93;;
73779;SDS011;62093;37.614;15.072;2023-02-12T06:41:26;8.18;;;5.68;;
73779;SDS011;62093;37.614;15.072;2023-02-12T06:43:53;8.25;;;5.93;;
73779;SDS011;62093;37.614;15.072;2023-02-12T06:46:18;9.05;;;5.90;;
73779;SDS011;62093;37.614;15.072;2023-02-12T06:48:44;8.73;;;6.00;;
73779;SDS011;62093;37.614;15.072;2023-02-12T06:51:11;9.27;;;6.43;;
73779;SDS011;62093;37.614;15.072;2023-02-12T06:53:40;9.18;;;6.18;;
73779;SDS011;62093;37.614;15.072;2023-02-12T06:56:07;9.18;;;6.03;;
73779;SDS011;62093;37.614;15.072;2023-02-12T06:58:35;9.37;;;6.13;;
73779;SDS011;62093;37.614;15.072;2023-02-12T07:03:50;9.15;;;6.05;;
73779;SDS011;62093;37.614;15.072;2023-02-12T07:06:17;8.30;;;5.70;;
73779;SDS011;62093;37.614;15.072;2023-02-12T07:08:44;8.52;;;6.18;;
73779;SDS011;62093;37.614;15.072;2023-02-12T07:11:10;8.83;;;6.03;;
73779;SDS011;62093;37.614;15.072;2023-02-12T07:13:35;9.00;;;6.45;;
73779;SDS011;62093;37.614;15.072;2023-02-12T07:16:05;8.40;;;5.73;;
73779;SDS011;62093;37.614;15.072;2023-02-12T07:18:35;8.57;;;6.00;;
73779;SDS011;62093;37.614;15.072;2023-02-12T07:21:02;8.45;;;6.05;;
73779;SDS011;62093;37.614;15.072;2023-02-12T07:23:30;8.82;;;6.45;;
73779;SDS011;62093;37.614;15.072;2023-02-12T07:25:57;9.05;;;5.88;;
73779;SDS011;62093;37.614;15.072;2023-02-12T07:28:24;8.43;;;6.17;;
73779;SDS011;62093;37.614;15.072;2023-02-12T07:30:51;8.80;;;5.63;;
73779;SDS011;62093;37.614;15.072;2023-02-12T07:33:17;8.68;;;5.38;;
73779;SDS011;62093;37.614;15.072;2023-02-12T07:35:44;8.68;;;5.82;;
73779;SDS011;62093;37.614;15.072;2023-02-12T07:38:10;7.95;;;5.43;;
73779;SDS011;62093;37.614;15.072;2023-02-12T07:40:36;8.10;;;5.67;;
73779;SDS011;62093;37.614;15.072;2023-02-12T07:43:02;9.23;;;6.45;;
73779;SDS011;62093;37.614;15.072;2023-02-12T07:45:32;8.27;;;5.78;;
73779;SDS011;62093;37.614;15.072;2023-02-12T07:47:58;7.93;;;5.13;;
73779;SDS011;62093;37.614;15.072;2023-02-12T07:50:24;7.60;;;5.28;;
73779;SDS011;62093;37.614;15.072;2023-02-12T07:52:49;9.73;;;5.75;;
73779;SDS011;62093;37.614;15.072;2023-02-12T07:55:15;8.80;;;6.00;;
73779;SDS011;62093;37.614;15.072;2023-02-12T07:57:41;8.47;;;5.50;;
73779;SDS011;62093;37.614;15.072;2023-02-12T08:00:08;7.82;;;5.68;;
73779;SDS011;62093;37.614;15.072;2023-02-12T08:02:37;8.57;;;5.88;;
73779;SDS011;62093;37.614;15.072;2023-02-12T08:05:03;8.80;;;6.03;;
73779;SDS011;62093;37.614;15.072;2023-02-12T08:07:29;8.35;;;5.32;;
73779;SDS011;62093;37.614;15.072;2023-02-12T08:09:55;7.68;;;5.53;;
73779;SDS011;62093;37.614;15.072;2023-02-12T08:12:21;8.52;;;5.68;;
73779;SDS011;62093;37.614;15.072;2023-02-12T08:14:48;8.13;;;5.63;;
73779;SDS011;62093;37.614;15.072;2023-02-12T08:17:14;8.30;;;5.55;;
73779;SDS011;62093;37.614;15.072;2023-02-12T08:19:40;8.02;;;5.43;;
73779;SDS011;62093;37.614;15.072;2023-02-12T08:22:05;8.43;;;5.53;;
73779;SDS011;62093;37.614;15.072;2023-02-12T08:24:31;8.20;;;5.85;;
73779;SDS011;62093;37.614;15.072;2023-02-12T08:26:57;7.05;;;5.13;;
73779;SDS011;62093;37.614;15.072;2023-02-12T08:29:24;8.10;;;5.70;;
73779;SDS011;62093;37.614;15.072;2023-02-12T08:31:56;8.77;;;5.45;;
73779;SDS011;62093;37.614;15.072;2023-02-12T08:34:24;8.20;;;5.40;;
73779;SDS011;62093;37.614;15.072;2023-02-12T08:36:52;8.27;;;5.75;;
73779;SDS011;62093;37.614;15.072;2023-02-12T08:39:19;8.40;;;5.40;;
73779;SDS011;62093;37.614;15.072;2023-02-12T08:41:46;7.65;;;5.53;;
73779;SDS011;62093;37.614;15.072;2023-02-12T08:44:12;8.52;;;5.25;;
73779;SDS011;62093;37.614;15.072;2023-02-12T08:46:41;8.17;;;5.33;;
73779;SDS011;62093;37.614;15.072;2023-02-12T08:49:12;8.60;;;6.03;;
73779;SDS011;62093;37.614;15.072;2023-02-12T08:51:40;8.73;;;5.43;;
73779;SDS011;62093;37.614;15.072;2023-02-12T08:54:13;8.60;;;5.78;;
73779;SDS011;62093;37.614;15.072;2023-02-12T08:56:41;8.65;;;5.22;;
73779;SDS011;62093;37.614;15.072;2023-02-12T08:59:09;8.40;;;5.73;;
73779;SDS011;62093;37.614;15.072;2023-02-12T09:01:37;8.20;;;5.25;;
73779;SDS011;62093;37.614;15.072;2023-02-12T09:04:05;8.35;;;5.30;;
73779;SDS011;62093;37.614;15.072;2023-02-12T09:06:33;9.43;;;5.45;;
73779;SDS011;62093;37.614;15.072;2023-02-12T09:09:00;8.77;;;5.45;;
73779;SDS011;62093;37.614;15.072;2023-02-12T09:11:27;7.90;;;5.50;;
73779;SDS011;62093;37.614;15.072;2023-02-12T09:13:57;8.52;;;5.82;;
73779;SDS011;62093;37.614;15.072;2023-02-12T09:16:28;8.80;;;5.05;;
73779;SDS011;62093;37.614;15.072;2023-02-12T09:18:55;8.05;;;5.25;;
73779;SDS011;62093;37.614;15.072;2023-02-12T09:21:21;8.93;;;5.65;;
73779;SDS011;62093;37.614;15.072;2023-02-12T09:23:47;8.33;;;5.43;;
73779;SDS011;62093;37.614;15.072;2023-02-12T09:26:16;9.60;;;5.82;;
73779;SDS011;62093;37.614;15.072;2023-02-12T09:28:47;8.68;;;5.35;;
73779;SDS011;62093;37.614;15.072;2023-02-12T09:31:18;7.80;;;5.25;;
73779;SDS011;62093;37.614;15.072;2023-02-12T09:33:51;7.83;;;5.37;;
73779;SDS011;62093;37.614;15.072;2023-02-12T09:36:18;7.93;;;5.63;;
73779;SDS011;62093;37.614;15.072;2023-02-12T09:38:45;7.82;;;5.13;;
73779;SDS011;62093;37.614;15.072;2023-02-12T09:52:37;8.88;;;5.80;;
73779;SDS011;62093;37.614;15.072;2023-02-12T09:55:04;8.20;;;5.38;;
73779;SDS011;62093;37.614;15.072;2023-02-12T09:57:31;8.20;;;5.18;;
73779;SDS011;62093;37.614;15.072;2023-02-12T10:02:48;8.73;;;5.75;;
73779;SDS011;62093;37.614;15.072;2023-02-12T10:05:18;8.85;;;5.75;;
73779;SDS011;62093;37.614;15.072;2023-02-12T10:08:04;8.20;;;5.57;;
73779;SDS011;62093;37.614;15.072;2023-02-12T10:13:23;8.47;;;6.00;;
73779;SDS011;62093;37.614;15.072;2023-02-12T10:19:19;7.20;;;4.95;;
73779;SDS011;62093;37.614;15.072;2023-02-12T10:33:14;8.63;;;5.78;;
73779;SDS011;62093;37.614;15.072;2023-02-12T10:35:43;8.10;;;5.68;;
73779;SDS011;62093;37.614;15.072;2023-02-12T10:38:16;8.05;;;5.22;;
73779;SDS011;62093;37.614;15.072;2023-02-12T10:40:45;7.50;;;5.13;;
73779;SDS011;62093;37.614;15.072;2023-02-12T10:43:11;7.70;;;5.32;;
73779;SDS011;62093;37.614;15.072;2023-02-12T10:45:40;8.07;;;5.10;;
73779;SDS011;62093;37.614;15.072;2023-02-12T10:48:29;8.02;;;5.80;;
73779;SDS011;62093;37.614;15.072;2023-02-12T10:53:36;8.07;;;4.95;;
73779;SDS011;62093;37.614;15.072;2023-02-12T10:56:06;7.93;;;5.40;;
73779;SDS011;62093;37.614;15.072;2023-02-12T10:58:41;7.68;;;5.00;;
73779;SDS011;62093;37.614;15.072;2023-02-12T11:01:25;7.85;;;5.00;;
73779;SDS011;62093;37.614;15.072;2023-02-12T11:03:56;8.50;;;4.90;;
73779;SDS011;62093;37.614;15.072;2023-02-12T11:06:27;8.38;;;5.43;;
73779;SDS011;62093;37.614;15.072;2023-02-12T11:08:54;8.63;;;5.28;;
73779;SDS011;62093;37.614;15.072;2023-02-12T11:11:22;8.18;;;5.35;;
73779;SDS011;62093;37.614;15.072;2023-02-12T11:16:28;7.43;;;4.87;;
73779;SDS011;62093;37.614;15.072;2023-02-12T11:18:57;8.30;;;4.85;;
73779;SDS011;62093;37.614;15.072;2023-02-12T11:21:34;7.20;;;4.57;;
73779;SDS011;62093;37.614;15.072;2023-02-12T11:27:24;7.95;;;4.90;;
73779;SDS011;62093;37.614;15.072;2023-02-12T11:30:34;6.87;;;4.80;;
73779;SDS011;62093;37.614;15.072;2023-02-12T11:32:43;7.18;;;4.65;;
73779;SDS011;62093;37.614;15.072;2023-02-12T11:35:11;8.80;;;5.18;;
73779;SDS011;62093;37.614;15.072;2023-02-12T11:37:41;8.40;;;4.43;;
73779;SDS011;62093;37.614;15.072;2023-02-12T11:40:18;7.93;;;4.50;;
73779;SDS011;62093;37.614;15.072;2023-02-12T11:42:47;7.63;;;5.03;;
73779;SDS011;62093;37.614;15.072;2023-02-12T11:45:19;7.82;;;4.80;;
73779;SDS011;62093;37.614;15.072;2023-02-12T11:47:47;7.00;;;4.75;;
73779;SDS011;62093;37.614;15.072;2023-02-12T11:52:39;7.60;;;4.80;;
73779;SDS011;62093;37.614;15.072;2023-02-12T11:55:28;8.07;;;5.10;;
73779;SDS011;62093;37.614;15.072;2023-02-12T12:00:32;8.32;;;5.45;;
73779;SDS011;62093;37.614;15.072;2023-02-12T12:03:15;10.20;;;4.90;;
73779;SDS011;62093;37.614;15.072;2023-02-12T12:05:58;8.57;;;5.10;;
73779;SDS011;62093;37.614;15.072;2023-02-12T12:11:09;7.65;;;4.90;;
73779;SDS011;62093;37.614;15.072;2023-02-12T12:14:22;7.32;;;4.38;;
73779;SDS011;62093;37.614;15.072;2023-02-12T12:16:58;8.10;;;5.40;;
73779;SDS011;62093;37.614;15.072;2023-02-12T12:22:53;8.38;;;5.10;;
73779;SDS011;62093;37.614;15.072;2023-02-12T12:25:25;7.38;;;4.78;;
73779;SDS011;62093;37.614;15.072;2023-02-12T12:42:00;9.98;;;5.80;;
73779;SDS011;62093;37.614;15.072;2023-02-12T12:50:20;9.07;;;5.47;;
73779;SDS011;62093;37.614;15.072;2023-02-12T12:58:41;11.32;;;6.95;;
73779;SDS011;62093;37.614;15.072;2023-02-12T13:04:31;11.95;;;8.00;;
73779;SDS011;62093;37.614;15.072;2023-02-12T13:12:37;12.88;;;7.53;;
73779;SDS011;62093;37.614;15.072;2023-02-12T13:23:15;14.75;;;9.55;;
73779;SDS011;62093;37.614;15.072;2023-02-12T13:35:19;16.60;;;9.63;;
73779;SDS011;62093;37.614;15.072;2023-02-12T13:37:48;15.02;;;9.05;;
73779;SDS011;62093;37.614;15.072;2023-02-12T13:40:19;16.05;;;10.45;;
73779;SDS011;62093;37.614;15.072;2023-02-12T13:56:14;13.33;;;8.97;;
73779;SDS011;62093;37.614;15.072;2023-02-12T13:58:47;17.25;;;9.63;;
73779;SDS011;62093;37.614;15.072;2023-02-12T14:07:06;13.88;;;9.10;;
73779;SDS011;62093;37.614;15.072;2023-02-12T14:14:50;17.33;;;10.57;;
73779;SDS011;62093;37.614;15.072;2023-02-12T14:20:19;15.70;;;9.80;;
73779;SDS011;62093;37.614;15.072;2023-02-12T14:23:00;14.67;;;9.50;;
73779;SDS011;62093;37.614;15.072;2023-02-12T14:26:00;13.52;;;8.70;;
73779;SDS011;62093;37.614;15.072;2023-02-12T14:31:19;14.98;;;9.65;;
73779;SDS011;62093;37.614;15.072;2023-02-12T14:38:59;14.73;;;9.15;;
73779;SDS011;62093;37.614;15.072;2023-02-12T14:47:03;12.38;;;8.45;;
73779;SDS011;62093;37.614;15.072;2023-02-12T14:49:48;14.48;;;9.55;;
73779;SDS011;62093;37.614;15.072;2023-02-12T14:52:21;13.98;;;8.98;;
73779;SDS011;62093;37.614;15.072;2023-02-12T14:54:54;15.73;;;9.45;;
73779;SDS011;62093;37.614;15.072;2023-02-12T14:57:33;14.80;;;9.33;;
73779;SDS011;62093;37.614;15.072;2023-02-12T15:02:33;15.23;;;9.60;;
73779;SDS011;62093;37.614;15.072;2023-02-12T15:05:04;14.60;;;9.50;;
73779;SDS011;62093;37.614;15.072;2023-02-12T15:07:52;15.07;;;9.32;;
73779;SDS011;62093;37.614;15.072;2023-02-12T15:10:30;13.37;;;8.93;;
73779;SDS011;62093;37.614;15.072;2023-02-12T15:15:51;15.65;;;9.13;;
73779;SDS011;62093;37.614;15.072;2023-02-12T15:18:47;14.02;;;9.32;;
73779;SDS011;62093;37.614;15.072;2023-02-12T15:21:25;14.23;;;9.10;;
73779;SDS011;62093;37.614;15.072;2023-02-12T15:24:00;13.80;;;8.97;;
73779;SDS011;62093;37.614;15.072;2023-02-12T15:26:26;12.57;;;8.70;;
73779;SDS011;62093;37.614;15.072;2023-02-12T15:28:54;14.23;;;9.10;;
73779;SDS011;62093;37.614;15.072;2023-02-12T15:31:26;13.73;;;8.93;;
73779;SDS011;62093;37.614;15.072;2023-02-12T15:33:57;14.45;;;9.27;;
73779;SDS011;62093;37.614;15.072;2023-02-12T15:36:25;14.87;;;9.47;;
73779;SDS011;62093;37.614;15.072;2023-02-12T15:38:55;14.90;;;9.40;;
73779;SDS011;62093;37.614;15.072;2023-02-12T15:41:44;15.65;;;9.93;;
73779;SDS011;62093;37.614;15.072;2023-02-12T15:44:19;13.80;;;8.50;;
73779;SDS011;62093;37.614;15.072;2023-02-12T15:46:54;14.18;;;9.32;;
73779;SDS011;62093;37.614;15.072;2023-02-12T15:49:26;13.17;;;9.53;;
73779;SDS011;62093;37.614;15.072;2023-02-12T15:51:54;14.63;;;9.35;;
73779;SDS011;62093;37.614;15.072;2023-02-12T15:54:21;14.77;;;8.95;;
73779;SDS011;62093;37.614;15.072;2023-02-12T15:56:48;14.10;;;9.38;;
73779;SDS011;62093;37.614;15.072;2023-02-12T15:59:21;14.00;;;8.85;;
73779;SDS011;62093;37.614;15.072;2023-02-12T16:01:53;14.07;;;8.77;;
73779;SDS011;62093;37.614;15.072;2023-02-12T16:04:22;13.23;;;8.80;;
73779;SDS011;62093;37.614;15.072;2023-02-12T16:06:50;14.38;;;8.88;;
73779;SDS011;62093;37.614;15.072;2023-02-12T16:09:25;15.25;;;9.18;;
73779;SDS011;62093;37.614;15.072;2023-02-12T16:11:55;13.85;;;8.57;;
73779;SDS011;62093;37.614;15.072;2023-02-12T16:14:29;13.03;;;8.27;;
73779;SDS011;62093;37.614;15.072;2023-02-12T16:17:27;14.15;;;9.40;;
73779;SDS011;62093;37.614;15.072;2023-02-12T16:22:35;14.30;;;8.68;;
73779;SDS011;62093;37.614;15.072;2023-02-12T16:25:12;14.98;;;8.82;;
73779;SDS011;62093;37.614;15.072;2023-02-12T16:27:39;12.97;;;8.60;;
73779;SDS011;62093;37.614;15.072;2023-02-12T16:30:07;12.75;;;8.75;;
73779;SDS011;62093;37.614;15.072;2023-02-12T16:32:47;12.95;;;8.80;;
73779;SDS011;62093;37.614;15.072;2023-02-12T16:37:40;14.83;;;9.73;;
73779;SDS011;62093;37.614;15.072;2023-02-12T16:47:53;13.35;;;8.43;;
73779;SDS011;62093;37.614;15.072;2023-02-12T16:50:23;11.88;;;7.97;;
73779;SDS011;62093;37.614;15.072;2023-02-12T16:52:58;14.32;;;8.65;;
73779;SDS011;62093;37.614;15.072;2023-02-12T16:55:25;14.02;;;8.88;;
73779;SDS011;62093;37.614;15.072;2023-02-12T16:57:51;13.40;;;8.70;;
73779;SDS011;62093;37.614;15.072;2023-02-12T17:00:17;13.48;;;8.57;;
73779;SDS011;62093;37.614;15.072;2023-02-12T17:02:43;13.13;;;8.73;;
73779;SDS011;62093;37.614;15.072;2023-02-12T17:05:11;13.80;;;9.03;;
73779;SDS011;62093;37.614;15.072;2023-02-12T17:07:41;13.70;;;9.13;;
73779;SDS011;62093;37.614;15.072;2023-02-12T17:10:11;14.27;;;8.93;;
73779;SDS011;62093;37.614;15.072;2023-02-12T17:15:32;12.68;;;8.70;;
73779;SDS011;62093;37.614;15.072;2023-02-12T17:18:02;13.83;;;8.63;;
73779;SDS011;62093;37.614;15.072;2023-02-12T17:20:28;13.63;;;8.55;;
73779;SDS011;62093;37.614;15.072;2023-02-12T17:22:54;14.43;;;9.20;;
73779;SDS011;62093;37.614;15.072;2023-02-12T17:25:25;12.70;;;8.30;;
73779;SDS011;62093;37.614;15.072;2023-02-12T17:27:51;12.97;;;8.50;;
73779;SDS011;62093;37.614;15.072;2023-02-12T17:30:18;13.98;;;8.95;;
73779;SDS011;62093;37.614;15.072;2023-02-12T17:32:48;13.10;;;8.63;;
73779;SDS011;62093;37.614;15.072;2023-02-12T17:35:14;13.25;;;8.88;;
73779;SDS011;62093;37.614;15.072;2023-02-12T17:37:40;13.27;;;8.57;;
73779;SDS011;62093;37.614;15.072;2023-02-12T17:40:06;13.80;;;9.20;;
73779;SDS011;62093;37.614;15.072;2023-02-12T17:42:33;13.63;;;8.73;;
73779;SDS011;62093;37.614;15.072;2023-02-12T17:44:58;13.53;;;8.77;;
73779;SDS011;62093;37.614;15.072;2023-02-12T17:47:24;13.05;;;8.65;;
73779;SDS011;62093;37.614;15.072;2023-02-12T17:49:50;13.30;;;9.10;;
73779;SDS011;62093;37.614;15.072;2023-02-12T17:52:16;11.77;;;8.00;;
73779;SDS011;62093;37.614;15.072;2023-02-12T17:54:44;12.82;;;8.23;;
73779;SDS011;62093;37.614;15.072;2023-02-12T17:57:10;11.80;;;8.15;;
73779;SDS011;62093;37.614;15.072;2023-02-12T17:59:37;12.27;;;8.33;;
73779;SDS011;62093;37.614;15.072;2023-02-12T18:02:03;13.68;;;8.48;;
73779;SDS011;62093;37.614;15.072;2023-02-12T18:04:32;12.38;;;8.48;;
73779;SDS011;62093;37.614;15.072;2023-02-12T18:07:02;13.57;;;8.95;;
73779;SDS011;62093;37.614;15.072;2023-02-12T18:09:29;13.27;;;8.65;;
73779;SDS011;62093;37.614;15.072;2023-02-12T18:11:55;13.83;;;8.23;;
73779;SDS011;62093;37.614;15.072;2023-02-12T18:14:21;15.15;;;8.57;;
73779;SDS011;62093;37.614;15.072;2023-02-12T18:16:47;12.40;;;8.10;;
73779;SDS011;62093;37.614;15.072;2023-02-12T18:19:12;13.00;;;8.70;;
73779;SDS011;62093;37.614;15.072;2023-02-12T18:21:39;12.30;;;8.70;;
73779;SDS011;62093;37.614;15.072;2023-02-12T18:24:04;14.32;;;8.80;;
73779;SDS011;62093;37.614;15.072;2023-02-12T18:26:31;13.75;;;8.85;;
73779;SDS011;62093;37.614;15.072;2023-02-12T18:28:57;13.20;;;8.63;;